Skip Navigation Links Skip Navigation Links

Current Weather

Phoenix Sky Harbor Intl, Phoenix, Ariz.

For information only: do not use for flight planning or navigation.
Latest weather
Observation time Thursday, October 28, 2021 2:51 AM MST
Local time Thursday, October 28, 2021 3:17 AM MST
Flight conditions Visual Meteorological Conditions
Winds
Wind direction East (90°)
Wind speed 3 mph
Visibility 10 mi.
Sky condition
Ceiling unlimited
Sky clear
Temperature 60°F
Dewpoint 35°F
Altimeter 30.04 in.Hg
Derived measurements
Relative humidity 39%
Density altitude 1176 ft.
Sea-level pressure 30.01 in.Hg
Remarks
Automated weather observing station with precipitation discriminator.
METAR KPHX 280951Z 09003KT 10SM CLR 16/02 A3004 RMK AO2 SLP161 T01560017

Settings

Location code

InnerDrive.Weather 4.0.6770.0 Release CLR 4.0.30319.42000
Copyright ©2018 Inner Drive Technology. All rights reserved. Portions Copyright ©1986-2018 David Braverman.

Find weather

Site navigation


Skip Navigation Links

Place info

Page info

PayPal - The safer, easier way to pay online!

Return home.

Copyright ©2021 Inner Drive Technology. Purveyors of fine, hand-crafted computer software. Page printed 2021-10-28T10:17:25 UTC.